Aviation Digital Data Service (ADDS)

Output produced by METARs form (0242 UTC 24 July 2017)
found at http://www.aviationweather.gov/adds/metars/
 
DBBB 240200Z 22009KT 8000 SCT011 24/24 Q1014 NOSIG
TAF DBBB 232300Z 2400/2506 22010KT 9999 SCT012 
     PROB30 
     TEMPO 2403/2408 4000 RA BKN008 
     TEMPO 2413/2420 4000 TSRA BKN010 FEW023CB